Time;durP1;ratioP1;P1;durP2;ratioP2;P2;SDS_P1;SDS_P2;PMS_P1;PMS_P2;Temp;Humidity;BMP_temperature;BMP_pressure;BME280_temperature;BME280_humidity;BME280_pressure;Samples;Min_cycle;Max_cycle;Signal;HPM_P1;HPM_P2
2022/03/23 00:00:22;;;;;;;25.52;13.25;;;;;;;1.60;68.19;98603.88;5025567;28;20059;-66
2022/03/23 00:02:49;;;;;;;22.77;12.75;;;;;;;1.45;68.83;98601.00;5028379;28;20045;-66
2022/03/23 00:05:16;;;;;;;21.33;13.05;;;;;;;1.52;68.89;98601.19;5022207;28;20046;-66
2022/03/23 00:07:43;;;;;;;24.83;12.45;;;;;;;1.53;68.76;98603.69;5023698;28;20045;-65
2022/03/23 00:10:11;;;;;;;21.23;12.90;;;;;;;1.51;68.90;98597.66;5018924;28;20053;-65
2022/03/23 00:12:44;;;;;;;23.45;12.30;;;;;;;1.49;68.85;98594.34;5023806;28;20082;-65
2022/03/23 00:15:12;;;;;;;23.63;13.55;;;;;;;1.46;69.07;98593.81;5021309;28;20079;-65
2022/03/23 00:17:42;;;;;;;23.38;13.82;;;;;;;1.38;69.34;98603.47;5017424;28;20041;-65
2022/03/23 00:20:09;;;;;;;26.05;14.30;;;;;;;1.40;69.43;98598.81;5014890;28;20041;-65
2022/03/23 00:22:36;;;;;;;26.73;14.93;;;;;;;1.43;69.50;98598.50;5013865;28;20530;-66
2022/03/23 00:25:03;;;;;;;26.95;13.80;;;;;;;1.50;68.91;98597.81;5017062;28;20607;-65
2022/03/23 00:27:29;;;;;;;26.58;14.20;;;;;;;1.47;69.12;98595.50;5014627;28;20052;-65
2022/03/23 00:29:56;;;;;;;26.50;15.23;;;;;;;1.41;69.61;98591.66;5012409;28;20055;-66
2022/03/23 00:32:23;;;;;;;25.25;14.35;;;;;;;1.40;69.34;98595.31;5023718;28;20468;-65
2022/03/23 00:34:50;;;;;;;29.05;13.95;;;;;;;1.37;69.95;98595.63;5026773;28;20084;-66
2022/03/23 00:37:17;;;;;;;23.70;13.35;;;;;;;1.44;69.17;98604.69;5025712;28;20132;-65
2022/03/23 00:39:44;;;;;;;22.60;12.52;;;;;;;1.37;69.80;98592.97;5027646;28;20033;-66
2022/03/23 00:42:10;;;;;;;25.83;14.23;;;;;;;1.33;69.29;98600.47;5026688;28;20433;-66
2022/03/23 00:44:37;;;;;;;26.55;14.10;;;;;;;1.32;69.79;98592.63;5027454;28;20041;-66
2022/03/23 00:47:04;;;;;;;24.90;12.73;;;;;;;1.30;69.60;98606.13;5041415;28;20049;-65
2022/03/23 00:49:30;;;;;;;28.10;14.50;;;;;;;1.21;69.91;98605.25;5026343;28;20117;-65
2022/03/23 00:51:58;;;;;;;24.77;13.60;;;;;;;1.21;69.87;98596.44;5014556;28;20042;-65
2022/03/23 00:54:25;;;;;;;24.40;13.38;;;;;;;1.09;70.35;98596.69;5021903;28;20044;-65
2022/03/23 00:56:52;;;;;;;25.10;14.30;;;;;;;1.07;70.39;98596.00;5026018;28;20034;-65
2022/03/23 00:59:22;;;;;;;23.75;13.35;;;;;;;1.07;70.31;98595.19;5025434;28;20080;-65
2022/03/23 01:01:49;;;;;;;27.45;14.38;;;;;;;1.12;70.25;98593.72;5023395;28;20421;-66
2022/03/23 01:04:17;;;;;;;24.80;15.40;;;;;;;1.06;70.63;98591.69;5024274;28;20107;-65
2022/03/23 01:06:44;;;;;;;26.10;13.23;;;;;;;1.03;70.56;98589.31;5021367;28;20069;-67
2022/03/23 01:09:12;;;;;;;28.45;13.70;;;;;;;1.03;70.44;98590.16;5029851;28;20536;-66
2022/03/23 01:11:40;;;;;;;25.13;13.82;;;;;;;1.11;70.16;98594.69;5026742;28;20037;-66
2022/03/23 01:14:07;;;;;;;21.30;12.93;;;;;;;1.10;70.40;98600.22;5024399;28;20562;-65
2022/03/23 01:16:35;;;;;;;24.77;13.32;;;;;;;1.02;70.44;98593.00;5023860;28;20048;-65
2022/03/23 01:19:02;;;;;;;29.40;13.55;;;;;;;0.93;70.88;98585.97;5023052;28;20123;-65
2022/03/23 01:21:28;;;;;;;25.15;14.13;;;;;;;0.86;70.98;98602.59;5023961;28;20050;-65
2022/03/23 01:23:55;;;;;;;22.95;13.00;;;;;;;0.80;71.56;98595.22;5025842;28;20045;-65
2022/03/23 01:26:22;;;;;;;23.42;12.73;;;;;;;0.64;71.57;98594.16;5026180;28;20049;-65
2022/03/23 01:28:50;;;;;;;26.60;13.60;;;;;;;0.58;71.97;98591.25;5024944;28;20061;-65
2022/03/23 01:31:17;;;;;;;25.00;13.18;;;;;;;0.55;72.50;98595.09;5022691;28;20072;-65
2022/03/23 01:33:43;;;;;;;23.85;13.98;;;;;;;0.53;72.78;98594.41;5019843;28;20099;-65
2022/03/23 01:36:12;;;;;;;23.83;13.93;;;;;;;0.74;71.98;98590.53;5025267;28;20529;-65
2022/03/23 01:38:38;;;;;;;25.40;13.98;;;;;;;0.78;71.91;98586.56;5023137;28;20109;-65
2022/03/23 01:41:05;;;;;;;28.25;13.93;;;;;;;0.63;72.41;98588.97;5026748;28;20132;-65
2022/03/23 01:43:35;;;;;;;23.45;13.13;;;;;;;0.60;72.37;98594.63;5023552;28;20038;-69
2022/03/23 01:46:02;;;;;;;23.67;14.02;;;;;;;0.47;72.56;98585.22;5026280;28;20053;-65
2022/03/23 01:48:29;;;;;;;29.02;14.20;;;;;;;0.42;73.13;98582.19;5026834;28;20061;-65
2022/03/23 01:50:56;;;;;;;24.25;12.88;;;;;;;0.43;73.07;98586.53;5022292;28;20076;-65
2022/03/23 01:53:23;;;;;;;24.50;14.00;;;;;;;0.51;72.60;98588.38;5023298;28;20042;-65
2022/03/23 01:55:50;;;;;;;25.70;14.13;;;;;;;0.49;73.08;98585.06;5025234;28;20148;-66
2022/03/23 01:58:21;;;;;;;23.70;12.45;;;;;;;0.51;72.31;98583.06;5024945;28;20045;-65
2022/03/23 02:00:48;;;;;;;25.42;12.48;;;;;;;0.61;72.39;98581.16;5026103;28;20037;-65
2022/03/23 02:03:15;;;;;;;20.52;11.82;;;;;;;0.82;71.13;98577.25;5024921;28;20041;-65
2022/03/23 02:05:42;;;;;;;26.70;13.20;;;;;;;1.14;70.49;98573.03;5025808;28;20045;-65
2022/03/23 02:08:11;;;;;;;19.25;12.75;;;;;;;1.37;69.52;98576.94;5024921;28;20183;-65
2022/03/23 02:10:41;;;;;;;22.30;13.35;;;;;;;1.47;68.95;98574.16;5024703;28;20084;-66
2022/03/23 02:13:11;;;;;;;25.58;14.25;;;;;;;1.57;68.79;98577.50;5024661;28;20045;-66
2022/03/23 02:15:38;;;;;;;24.60;12.30;;;;;;;1.58;68.06;98576.50;5031401;28;20075;-66
2022/03/23 02:18:06;;;;;;;23.13;12.25;;;;;;;1.64;68.18;98581.19;5031973;28;20505;-66
2022/03/23 02:20:33;;;;;;;21.95;11.73;;;;;;;1.72;67.66;98574.16;5010083;28;20053;-65
2022/03/23 02:23:00;;;;;;;25.40;13.90;;;;;;;1.78;67.49;98570.84;5018714;28;20069;-66
2022/03/23 02:25:29;;;;;;;22.42;12.13;;;;;;;1.72;67.49;98572.34;5025899;28;20064;-66
2022/03/23 02:27:56;;;;;;;22.27;12.90;;;;;;;1.77;67.46;98571.88;5026699;28;20049;-66
2022/03/23 02:30:22;;;;;;;24.75;12.88;;;;;;;1.74;67.52;98577.53;5023842;28;20041;-66
2022/03/23 02:32:49;;;;;;;24.45;13.48;;;;;;;1.79;67.60;98575.19;5025744;28;20045;-66
2022/03/23 02:35:16;;;;;;;22.05;12.20;;;;;;;1.81;67.62;98576.69;5026722;28;20046;-66
2022/03/23 02:37:43;;;;;;;20.77;11.85;;;;;;;1.82;66.67;98572.19;5028152;28;20053;-65
2022/03/23 02:40:15;;;;;;;24.35;12.90;;;;;;;1.81;67.03;98573.19;5045576;28;20440;-65
2022/03/23 02:42:42;;;;;;;23.45;13.27;;;;;;;1.72;67.79;98572.34;5017137;28;20104;-65
2022/03/23 02:45:13;;;;;;;26.90;12.55;;;;;;;1.64;67.78;98581.19;5023282;28;20045;-66
2022/03/23 02:47:41;;;;;;;23.27;13.73;;;;;;;1.60;67.99;98577.19;5024573;28;20451;-65
2022/03/23 02:50:09;;;;;;;27.65;14.30;;;;;;;1.42;68.56;98583.47;5019360;28;20053;-65
2022/03/23 03:01:51;;;;;;;23.42;13.95;;;;;;;1.38;69.16;98576.78;5029687;28;20045;-66
2022/03/23 03:03:57;;;;;;;21.95;12.48;;;;;;;0.88;70.36;98581.94;5024174;28;20049;-65
2022/03/23 03:06:24;;;;;;;28.77;14.23;;;;;;;0.61;71.61;98593.63;5023973;28;20037;-66
2022/03/23 03:08:51;;;;;;;24.85;15.32;;;;;;;0.49;72.14;98595.72;5024217;28;20077;-65
2022/03/23 03:11:19;;;;;;;29.42;14.52;;;;;;;0.48;72.25;98594.06;5024828;28;20041;-65
2022/03/23 03:13:48;;;;;;;24.40;13.88;;;;;;;0.58;72.32;98600.09;5022481;28;20041;-65
2022/03/23 03:16:16;;;;;;;24.70;13.38;;;;;;;0.48;72.33;98596.72;5023842;28;20045;-65
2022/03/23 03:18:43;;;;;;;27.33;15.00;;;;;;;0.59;71.92;98603.63;5024263;28;20800;-65
2022/03/23 03:21:11;;;;;;;22.55;12.50;;;;;;;0.68;71.51;98602.66;5026407;28;20046;-65
2022/03/23 03:23:41;;;;;;;27.42;14.40;;;;;;;0.65;71.50;98602.97;5024220;28;20030;-66
2022/03/23 03:26:09;;;;;;;27.38;13.77;;;;;;;0.64;72.23;98610.16;5024891;28;20053;-66
2022/03/23 03:28:37;;;;;;;26.33;13.60;;;;;;;0.56;71.82;98603.94;5023091;28;20041;-66
2022/03/23 03:31:06;;;;;;;27.10;14.20;;;;;;;0.47;72.10;98601.19;5024343;28;20041;-65
2022/03/23 03:33:33;;;;;;;29.60;14.35;;;;;;;0.41;72.66;98603.66;5025965;28;20095;-65
2022/03/23 03:36:01;;;;;;;24.08;13.70;;;;;;;0.54;72.23;98613.88;5024892;28;20640;-65
2022/03/23 03:38:27;;;;;;;23.38;12.57;;;;;;;0.53;71.51;98605.06;5025257;28;20505;-66
2022/03/23 03:40:55;;;;;;;22.65;12.18;;;;;;;0.47;71.91;98608.34;5025038;28;20045;-65
2022/03/23 03:43:23;;;;;;;22.77;12.60;;;;;;;0.34;72.07;98606.13;5026425;28;20041;-65
2022/03/23 03:45:51;;;;;;;23.63;13.20;;;;;;;0.12;72.71;98611.75;5023576;28;20049;-65
2022/03/23 03:48:17;;;;;;;27.58;15.20;;;;;;;-0.10;73.91;98607.75;5025631;28;20057;-65
2022/03/23 03:50:44;;;;;;;24.33;13.43;;;;;;;-0.15;74.19;98610.88;5025023;28;20048;-65
2022/03/23 03:53:11;;;;;;;24.02;12.40;;;;;;;-0.08;74.24;98611.09;5032064;28;20042;-65
2022/03/23 03:55:39;;;;;;;27.83;13.27;;;;;;;0.03;74.15;98612.69;5025056;28;20049;-65
2022/03/23 03:58:06;;;;;;;21.73;12.73;;;;;;;0.17;73.75;98611.31;5022619;28;20416;-66
2022/03/23 04:00:36;;;;;;;24.02;12.80;;;;;;;0.35;72.96;98613.09;5024507;28;20057;-66
2022/03/23 04:03:03;;;;;;;21.02;12.65;;;;;;;0.54;72.09;98606.75;5028548;28;20120;-65
2022/03/23 04:05:31;;;;;;;20.42;11.27;;;;;;;0.76;70.90;98605.38;5028710;28;20049;-65
2022/03/23 04:07:58;;;;;;;24.25;11.85;;;;;;;0.92;70.24;98608.28;5026172;28;20045;-65
2022/03/23 04:10:25;;;;;;;27.40;14.27;;;;;;;0.85;70.47;98611.59;5027659;28;20053;-65
2022/03/23 04:12:53;;;;;;;26.15;14.25;;;;;;;0.76;70.65;98601.88;5027840;28;20037;-65
2022/03/23 04:15:20;;;;;;;23.33;13.43;;;;;;;0.62;70.97;98606.78;5026830;28;20053;-66
2022/03/23 04:17:51;;;;;;;23.67;11.43;;;;;;;0.71;70.97;98604.19;5027923;28;20045;-65
2022/03/23 04:20:18;;;;;;;21.15;11.43;;;;;;;0.64;70.79;98615.50;5021486;28;20048;-65
2022/03/23 04:22:44;;;;;;;21.00;12.15;;;;;;;0.65;71.10;98610.97;5028202;28;20112;-65
2022/03/23 04:25:13;;;;;;;21.13;11.90;;;;;;;0.72;70.68;98611.19;5039180;28;20071;-65
2022/03/23 04:27:51;;;;;;;23.85;12.57;;;;;;;0.58;71.20;98607.25;5028309;28;20044;-65
2022/03/23 04:30:19;;;;;;;25.08;12.82;;;;;;;0.10;72.78;98612.91;5027574;28;20529;-66
2022/03/23 04:32:49;;;;;;;21.92;12.65;;;;;;;0.05;73.44;98609.88;5027502;28;20030;-66
2022/03/23 04:35:16;;;;;;;23.02;12.35;;;;;;;0.12;72.74;98617.09;5032919;28;20106;-66
2022/03/23 04:37:43;;;;;;;21.98;11.63;;;;;;;0.43;71.79;98612.31;5039472;28;20091;-66
2022/03/23 04:40:11;;;;;;;23.45;12.35;;;;;;;0.74;70.68;98612.69;5027311;28;20053;-66
2022/03/23 04:42:38;;;;;;;19.40;11.00;;;;;;;0.82;70.15;98611.91;5027875;28;20041;-65
2022/03/23 04:45:06;;;;;;;26.58;13.23;;;;;;;0.78;70.17;98618.56;5026011;28;20053;-66
2022/03/23 04:47:36;;;;;;;22.13;11.75;;;;;;;0.66;70.77;98620.63;5027856;28;20045;-66
2022/03/23 04:50:06;;;;;;;18.48;10.90;;;;;;;0.70;70.35;98618.50;5027873;28;20045;-65
2022/03/23 04:52:33;;;;;;;21.63;10.85;;;;;;;0.78;70.33;98624.72;5033235;28;20048;-66
2022/03/23 04:54:59;;;;;;;24.75;14.45;;;;;;;0.47;71.18;98622.53;5028297;28;20038;-65
2022/03/23 04:57:27;;;;;;;20.70;12.57;;;;;;;0.48;71.07;98621.53;5027426;28;20041;-64
2022/03/23 04:59:54;;;;;;;20.23;10.70;;;;;;;0.48;70.81;98626.84;5026309;28;20135;-64
2022/03/23 05:02:21;;;;;;;21.23;13.38;;;;;;;0.22;72.00;98630.31;5029456;28;20630;-65
2022/03/23 05:04:48;;;;;;;20.75;11.55;;;;;;;0.33;71.54;98637.25;5029332;28;20051;-66
2022/03/23 05:07:15;;;;;;;17.73;11.00;;;;;;;0.38;71.39;98632.28;5027752;28;20060;-66
2022/03/23 05:09:41;;;;;;;17.55;10.70;;;;;;;0.46;71.40;98630.66;5022984;28;20037;-65
2022/03/23 05:12:08;;;;;;;18.80;10.90;;;;;;;0.44;71.30;98632.66;5026083;28;20038;-65
2022/03/23 05:14:36;;;;;;;20.05;10.65;;;;;;;0.60;70.43;98638.13;5023717;28;20500;-65
2022/03/23 05:17:04;;;;;;;19.52;11.60;;;;;;;0.64;70.12;98636.81;5026327;28;20059;-66
2022/03/23 05:19:30;;;;;;;17.55;10.57;;;;;;;0.63;70.17;98640.44;5022241;28;20100;-66
2022/03/23 05:21:57;;;;;;;18.75;11.13;;;;;;;0.67;69.96;98634.81;5023943;28;20053;-66
2022/03/23 05:24:24;;;;;;;18.45;10.93;;;;;;;0.74;69.78;98634.03;5020601;28;20497;-66
2022/03/23 05:26:51;;;;;;;18.02;10.05;;;;;;;0.76;69.62;98647.19;5024416;28;20046;-65
2022/03/23 05:29:17;;;;;;;21.60;10.52;;;;;;;0.77;69.48;98640.88;5022482;28;20048;-65
2022/03/23 05:31:44;;;;;;;17.42;10.38;;;;;;;0.74;69.56;98647.34;5024021;28;20208;-65
2022/03/23 05:34:10;;;;;;;20.90;10.57;;;;;;;0.75;70.03;98648.19;5024031;28;20069;-66
2022/03/23 05:36:37;;;;;;;19.88;10.88;;;;;;;0.82;69.40;98645.75;5023925;28;20123;-65
2022/03/23 05:39:03;;;;;;;21.90;12.63;;;;;;;0.66;69.87;98646.47;5024425;28;20065;-66
2022/03/23 05:41:30;;;;;;;22.17;12.55;;;;;;;0.57;70.91;98645.56;5023371;28;20045;-65
2022/03/23 05:43:57;;;;;;;21.25;11.48;;;;;;;0.58;70.55;98648.09;5022097;28;20044;-65
2022/03/23 05:46:23;;;;;;;23.00;11.60;;;;;;;0.74;70.34;98647.34;5024549;28;20049;-65
2022/03/23 05:48:50;;;;;;;21.73;10.85;;;;;;;0.82;70.11;98648.41;5026027;28;20130;-65
2022/03/23 05:51:17;;;;;;;23.63;11.93;;;;;;;0.80;69.82;98653.88;5023933;28;20053;-65
2022/03/23 05:53:43;;;;;;;20.55;12.70;;;;;;;0.75;70.46;98645.53;5025515;28;20536;-65
2022/03/23 05:56:10;;;;;;;24.23;13.35;;;;;;;0.72;70.38;98644.03;5021066;28;20086;-66
2022/03/23 05:58:36;;;;;;;23.75;13.63;;;;;;;0.76;70.52;98653.38;5024145;28;20164;-65
2022/03/23 06:01:03;;;;;;;23.38;12.18;;;;;;;0.92;70.02;98653.63;5023406;28;20531;-65
2022/03/23 06:03:31;;;;;;;20.92;11.60;;;;;;;1.10;69.43;98654.38;5024076;28;20041;-66
2022/03/23 06:05:58;;;;;;;19.85;10.50;;;;;;;1.10;69.65;98656.25;5021593;28;20056;-65
2022/03/23 06:08:24;;;;;;;19.83;12.27;;;;;;;1.15;69.22;98645.91;5027833;28;20048;-65
2022/03/23 06:10:52;;;;;;;22.88;13.02;;;;;;;1.20;68.94;98648.09;5024430;28;20140;-66
2022/03/23 06:13:19;;;;;;;19.67;11.85;;;;;;;1.29;68.92;98650.66;5023068;28;20042;-65
2022/03/23 06:15:46;;;;;;;20.85;11.90;;;;;;;1.41;69.17;98650.38;5021008;28;20064;-66
2022/03/23 06:18:13;;;;;;;24.88;12.90;;;;;;;1.44;68.49;98655.38;5029272;28;20051;-65
2022/03/23 06:20:40;;;;;;;22.55;13.13;;;;;;;1.47;68.65;98655.03;5024595;28;20049;-65
2022/03/23 06:23:07;;;;;;;21.35;11.75;;;;;;;1.57;69.12;98654.91;5020536;28;20611;-65
2022/03/23 06:25:34;;;;;;;22.63;14.13;;;;;;;1.61;68.41;98658.09;5022919;28;20033;-65
2022/03/23 06:28:00;;;;;;;20.13;10.73;;;;;;;1.66;69.01;98663.81;5025971;28;20041;-66
2022/03/23 06:30:27;;;;;;;22.63;11.63;;;;;;;1.83;68.04;98663.84;5025323;28;20041;-65
2022/03/23 06:32:53;;;;;;;20.60;11.65;;;;;;;1.95;67.69;98666.03;5026556;28;20046;-65
2022/03/23 06:35:21;;;;;;;25.73;13.15;;;;;;;2.08;67.62;98664.72;5018936;28;20721;-66
2022/03/23 06:37:47;;;;;;;20.73;10.98;;;;;;;2.20;68.00;98674.09;5020985;28;20052;-66
2022/03/23 06:40:14;;;;;;;22.73;12.52;;;;;;;2.32;67.19;98673.78;5024055;28;20895;-65
2022/03/23 06:42:43;;;;;;;24.77;13.70;;;;;;;2.41;67.32;98674.59;5023035;28;20072;-65
2022/03/23 06:45:09;;;;;;;23.35;11.80;;;;;;;2.54;67.32;98677.59;5020298;28;20046;-66
2022/03/23 06:47:36;;;;;;;19.85;11.27;;;;;;;2.65;66.94;98680.94;5033937;28;20082;-65
2022/03/23 06:50:04;;;;;;;25.05;12.50;;;;;;;2.72;66.86;98677.41;5024573;28;20045;-66
2022/03/23 06:52:31;;;;;;;25.05;14.35;;;;;;;2.74;66.98;98679.94;5022122;28;20065;-66
2022/03/23 06:54:58;;;;;;;24.85;13.85;;;;;;;2.82;66.55;98687.09;5022148;28;20042;-66
2022/03/23 06:57:24;;;;;;;22.25;14.18;;;;;;;2.97;65.96;98681.91;5021871;28;20048;-66
2022/03/23 06:59:51;;;;;;;22.33;11.70;;;;;;;3.09;65.63;98687.72;5025477;28;20048;-66
2022/03/23 07:02:17;;;;;;;21.00;12.88;;;;;;;3.24;65.15;98688.69;5023293;28;20676;-65
2022/03/23 07:04:44;;;;;;;21.88;12.27;;;;;;;3.31;64.80;98685.34;5024377;28;20049;-65
2022/03/23 07:07:11;;;;;;;24.05;12.93;;;;;;;3.45;64.91;98684.59;5021235;28;20049;-66
2022/03/23 07:09:40;;;;;;;23.92;11.80;;;;;;;3.54;65.28;98688.06;5022979;28;20049;-65
2022/03/23 07:12:09;;;;;;;22.23;12.68;;;;;;;3.64;64.58;98687.88;5021137;28;20091;-66
2022/03/23 07:14:37;;;;;;;21.25;12.70;;;;;;;3.84;64.37;98682.91;5016813;28;20103;-65
2022/03/23 07:17:05;;;;;;;20.58;11.55;;;;;;;4.02;63.82;98687.19;5018236;28;20046;-66
2022/03/23 07:19:32;;;;;;;22.05;11.50;;;;;;;4.13;63.43;98689.44;5023767;28;20056;-67
2022/03/23 07:21:59;;;;;;;22.00;11.70;;;;;;;4.23;63.23;98693.72;5031982;28;20497;-66
2022/03/23 07:24:26;;;;;;;19.92;11.07;;;;;;;4.26;63.17;98694.22;5036609;28;20041;-66
2022/03/23 07:26:53;;;;;;;17.70;10.57;;;;;;;4.26;64.02;98701.44;5029475;28;20045;-66
2022/03/23 07:29:40;;;;;;;18.08;10.20;;;;;;;4.25;63.75;98705.13;5019678;28;20073;-66
2022/03/23 07:32:07;;;;;;;20.73;10.68;;;;;;;4.32;63.63;98706.09;5022867;28;20048;-66
2022/03/23 07:34:34;;;;;;;17.42;10.18;;;;;;;4.38;62.86;98705.38;5020338;28;20493;-66
2022/03/23 07:37:00;;;;;;;18.58;11.57;;;;;;;4.49;62.51;98698.75;5026476;28;20041;-66
2022/03/23 07:39:27;;;;;;;18.30;10.85;;;;;;;4.86;62.33;98711.53;5029283;28;20037;-66
2022/03/23 07:41:55;;;;;;;20.73;11.30;;;;;;;5.14;61.08;98706.41;5025034;28;20509;-66
2022/03/23 07:44:22;;;;;;;19.73;11.50;;;;;;;5.28;60.25;98710.13;5026610;28;20084;-66
2022/03/23 07:46:48;;;;;;;25.67;12.02;;;;;;;5.64;59.58;98713.06;5026026;28;20060;-66
2022/03/23 07:49:15;;;;;;;23.50;12.65;;;;;;;5.88;60.02;98706.56;5026538;28;20046;-66
2022/03/23 07:51:42;;;;;;;19.42;11.32;;;;;;;6.23;57.64;98719.41;5027928;28;20111;-66
2022/03/23 07:54:09;;;;;;;16.88;10.73;;;;;;;6.53;56.26;98716.59;5022490;28;20049;-66
2022/03/23 07:56:35;;;;;;;19.77;10.80;;;;;;;6.81;54.28;98714.97;5024960;28;20098;-66
2022/03/23 07:59:02;;;;;;;19.88;11.15;;;;;;;7.01;53.21;98715.13;5026786;28;20046;-66
2022/03/23 08:01:29;;;;;;;19.67;10.93;;;;;;;7.11;53.41;98721.00;5038799;28;20562;-66
2022/03/23 08:03:57;;;;;;;17.23;10.20;;;;;;;7.22;53.94;98716.09;5024856;28;20509;-65
2022/03/23 08:06:25;;;;;;;17.50;9.77;;;;;;;7.30;53.57;98726.72;5033847;28;20048;-66
2022/03/23 08:08:52;;;;;;;21.23;11.05;;;;;;;7.33;53.39;98715.53;5030936;28;20038;-66
2022/03/23 08:11:19;;;;;;;17.73;10.52;;;;;;;7.31;53.28;98716.78;5025552;28;20056;-66
2022/03/23 08:13:45;;;;;;;18.30;10.85;;;;;;;7.38;53.96;98729.25;5026002;28;20057;-66
2022/03/23 08:16:12;;;;;;;19.60;10.75;;;;;;;7.52;53.27;98727.47;5025048;28;20576;-65
2022/03/23 08:18:39;;;;;;;16.55;10.00;;;;;;;7.59;52.78;98732.91;5028652;28;20107;-66
2022/03/23 08:21:05;;;;;;;19.02;11.30;;;;;;;7.72;52.82;98729.44;5032728;28;20571;-66
2022/03/23 08:23:32;;;;;;;17.80;10.85;;;;;;;7.84;51.72;98731.56;5026902;28;20048;-66
2022/03/23 08:26:00;;;;;;;21.48;10.73;;;;;;;7.83;51.46;98730.75;5028585;28;20638;-66
2022/03/23 08:28:26;;;;;;;18.00;9.95;;;;;;;7.83;51.36;98730.75;5025094;28;20045;-66
2022/03/23 08:30:54;;;;;;;17.35;10.38;;;;;;;7.90;50.90;98734.31;5025988;28;20099;-66
2022/03/23 08:33:25;;;;;;;18.00;10.68;;;;;;;7.92;50.55;98729.53;5025889;28;20041;-66
2022/03/23 08:35:51;;;;;;;17.20;10.57;;;;;;;7.98;50.80;98729.75;5032629;28;20051;-66
2022/03/23 08:38:18;;;;;;;16.38;9.68;;;;;;;8.25;49.95;98725.28;5031410;28;20046;-66
2022/03/23 08:40:45;;;;;;;19.83;10.88;;;;;;;8.38;49.38;98729.06;5025563;28;20045;-66
2022/03/23 08:43:11;;;;;;;16.67;9.93;;;;;;;8.39;50.04;98728.03;5025684;28;20049;-66
2022/03/23 08:45:38;;;;;;;19.88;10.02;;;;;;;8.33;50.03;98730.50;5025194;28;20053;-66
2022/03/23 08:48:04;;;;;;;17.98;10.93;;;;;;;8.37;50.62;98732.81;5026206;28;20048;-66
2022/03/23 08:50:31;;;;;;;18.67;11.13;;;;;;;8.37;50.09;98728.22;5025100;28;20045;-66
2022/03/23 08:52:57;;;;;;;19.10;10.88;;;;;;;8.51;49.61;98733.66;5024991;28;20720;-66
2022/03/23 08:55:31;;;;;;;17.67;10.40;;;;;;;8.72;48.35;98721.88;5025657;28;20124;-66
2022/03/23 08:57:57;;;;;;;18.20;10.38;;;;;;;8.79;47.61;98730.81;5028325;28;20424;-66
2022/03/23 09:00:24;;;;;;;19.02;10.80;;;;;;;8.91;47.61;98728.31;5025789;28;20053;-66
2022/03/23 09:02:52;;;;;;;17.08;10.55;;;;;;;9.23;46.19;98723.13;5024388;28;20128;-66
2022/03/23 09:05:19;;;;;;;18.02;11.07;;;;;;;9.31;44.57;98721.22;5029045;28;20120;-66
2022/03/23 09:07:46;;;;;;;19.02;10.90;;;;;;;9.31;45.30;98723.94;5023603;28;20097;-66
2022/03/23 09:10:14;;;;;;;18.98;10.57;;;;;;;9.35;45.42;98723.31;5024153;28;20047;-66
2022/03/23 09:12:42;;;;;;;21.58;11.02;;;;;;;9.33;45.86;98717.28;5025005;28;20045;-67
2022/03/23 09:15:12;;;;;;;16.17;10.32;;;;;;;9.34;45.77;98724.38;5023485;28;20703;-65
2022/03/23 09:17:39;;;;;;;16.35;10.10;;;;;;;9.44;44.18;98721.19;5024934;28;20611;-66
2022/03/23 09:20:07;;;;;;;18.55;10.27;;;;;;;9.61;44.44;98720.75;5024836;28;20037;-66
2022/03/23 09:22:34;;;;;;;15.88;9.85;;;;;;;9.82;42.79;98719.66;5029509;28;20049;-67
2022/03/23 09:25:03;;;;;;;15.05;9.45;;;;;;;9.99;41.78;98716.47;5030816;28;20045;-66
2022/03/23 09:27:34;;;;;;;18.38;10.48;;;;;;;10.32;40.08;98709.22;5023106;28;20132;-66
2022/03/23 09:30:05;;;;;;;19.65;10.80;;;;;;;10.51;41.13;98705.59;5027949;28;20057;-66
2022/03/23 09:32:32;;;;;;;17.63;10.70;;;;;;;10.49;40.71;98707.69;5020743;28;20042;-66
2022/03/23 09:34:59;;;;;;;17.33;10.02;;;;;;;10.53;39.69;98706.22;5024608;28;20056;-66
2022/03/23 09:40:31;;;;;;;13.95;9.15;;;;;;;10.72;37.22;98713.59;5019078;28;20057;-66
2022/03/23 09:43:02;;;;;;;14.20;9.13;;;;;;;10.68;36.89;98713.19;5024738;28;20834;-66
2022/03/23 09:45:46;;;;;;;14.90;9.07;;;;;;;10.69;36.21;98706.69;5020531;28;20041;-66
2022/03/23 09:48:20;;;;;;;16.08;10.45;;;;;;;10.97;35.90;98702.75;5024100;28;20136;-66
2022/03/23 09:50:50;;;;;;;14.73;10.05;;;;;;;10.90;36.13;98710.09;5024830;28;20125;-66
2022/03/23 09:53:17;;;;;;;14.98;9.02;;;;;;;10.88;36.98;98704.88;5023167;28;20095;-66
2022/03/23 09:55:44;;;;;;;16.98;9.52;;;;;;;11.23;36.40;98708.13;5023812;28;20042;-66
2022/03/23 09:58:11;;;;;;;12.77;9.27;;;;;;;11.53;34.96;98702.84;5022942;28;20045;-67
2022/03/23 10:00:40;;;;;;;16.83;9.52;;;;;;;11.62;34.01;98700.66;5022698;28;20041;-66
2022/03/23 10:03:59;;;;;;;16.33;8.80;;;;;;;11.91;33.64;98702.84;5024162;28;20059;-66
2022/03/23 10:06:48;;;;;;;17.08;10.15;;;;;;;11.93;33.64;98704.25;5023769;28;20097;-66
2022/03/23 10:09:39;;;;;;;12.95;9.10;;;;;;;12.00;31.77;98700.63;5024516;28;20052;-66
2022/03/23 10:12:31;;;;;;;10.63;7.50;;;;;;;12.07;31.47;98704.97;5021262;28;20045;-66
2022/03/23 10:15:13;;;;;;;11.63;8.70;;;;;;;12.25;29.65;98708.69;5024284;28;20033;-65
2022/03/23 10:17:39;;;;;;;;;;;;;;;12.36;29.62;98698.94;5021677;28;20057;-65
2022/03/23 10:20:06;;;;;;;15.93;9.13;;;;;;;12.61;29.70;98701.47;5023887;28;20287;-65
2022/03/23 10:22:32;;;;;;;12.38;8.27;;;;;;;12.57;29.82;98700.28;5024063;28;20551;-66
2022/03/23 10:25:08;;;;;;;14.00;9.02;;;;;;;12.47;30.48;98697.31;5028675;28;20654;-66
2022/03/23 10:27:34;;;;;;;11.57;8.77;;;;;;;12.90;29.06;98700.00;5022271;28;20049;-66
2022/03/23 10:30:02;;;;;;;12.23;8.35;;;;;;;12.90;28.79;98700.00;5023929;28;20088;-66
2022/03/23 10:32:36;;;;;;;14.73;9.57;;;;;;;12.84;29.56;98699.03;5023570;28;20041;-66
2022/03/23 10:35:09;;;;;;;13.25;9.23;;;;;;;12.84;30.06;98690.88;5020992;28;20041;-66
2022/03/23 10:37:36;;;;;;;13.98;9.18;;;;;;;12.87;30.79;98691.22;5022415;28;20041;-66
2022/03/23 10:40:07;;;;;;;13.15;10.27;;;;;;;12.90;30.07;98691.84;5023490;28;20088;-66
2022/03/23 10:42:36;;;;;;;12.07;8.90;;;;;;;12.86;29.33;98688.75;5023787;28;20041;-66
2022/03/23 10:45:16;;;;;;;13.98;9.93;;;;;;;12.92;29.65;98686.97;5022378;28;20491;-66
2022/03/23 10:47:44;;;;;;;12.40;8.95;;;;;;;12.92;29.69;98679.66;5021379;28;20049;-66
2022/03/23 10:50:13;;;;;;;14.13;8.80;;;;;;;13.01;29.45;98682.84;5022550;28;20501;-66
2022/03/23 10:52:54;;;;;;;16.42;11.05;;;;;;;13.06;30.51;98679.44;5022667;28;20057;-66
2022/03/23 10:55:23;;;;;;;16.33;9.95;;;;;;;13.03;30.66;98677.19;5022936;28;20095;-66
2022/03/23 10:58:18;;;;;;;12.30;9.15;;;;;;;13.19;30.95;98673.75;5023257;28;20045;-66
2022/03/23 11:00:45;;;;;;;13.50;9.07;;;;;;;13.40;31.06;98666.06;5018537;28;20084;-65
2022/03/23 11:03:12;;;;;;;17.25;9.13;;;;;;;13.49;29.81;98672.00;5021744;28;20073;-66
2022/03/23 11:05:43;;;;;;;16.80;9.23;;;;;;;13.55;29.67;98659.31;5025152;28;20029;-66
2022/03/23 11:08:15;;;;;;;13.30;9.90;;;;;;;13.57;29.95;98658.03;5025287;28;20048;-67
2022/03/23 11:16:27;;;;;;;13.15;9.60;;;;;;;13.76;29.94;98663.31;5022424;28;20065;-65
2022/03/23 11:19:08;;;;;;;17.40;10.30;;;;;;;13.95;30.90;98660.38;5020705;28;20050;-66
2022/03/23 11:22:03;;;;;;;15.93;11.37;;;;;;;14.17;30.97;98657.81;5022845;28;20370;-66
2022/03/23 11:24:38;;;;;;;14.35;9.88;;;;;;;14.05;30.34;98657.88;5022338;28;20052;-66
2022/03/23 11:27:06;;;;;;;12.10;8.70;;;;;;;14.28;26.52;98656.94;5023096;28;20049;-65
2022/03/23 11:29:34;;;;;;;10.63;7.18;;;;;;;14.37;25.75;98653.84;5028047;28;20057;-66
2022/03/23 11:32:04;;;;;;;13.73;8.38;;;;;;;14.30;25.91;98645.81;5022031;28;20045;-66
2022/03/23 11:34:34;;;;;;;11.63;8.38;;;;;;;14.21;26.51;98641.81;5023238;28;20460;-60
2022/03/23 11:37:02;;;;;;;11.93;6.95;;;;;;;14.20;28.23;98649.16;5021272;28;20069;-65
2022/03/23 11:39:29;;;;;;;10.98;6.45;;;;;;;14.34;25.97;98640.69;5020455;28;20053;-65
2022/03/23 11:41:58;;;;;;;9.95;7.05;;;;;;;14.49;28.68;98638.22;5022531;28;20056;-65
2022/03/23 11:44:26;;;;;;;13.10;7.95;;;;;;;14.51;26.33;98633.34;5023220;28;20041;-65
2022/03/23 11:47:00;;;;;;;13.57;8.35;;;;;;;14.40;24.13;98634.25;5019002;28;20103;-67